createdAt,value
2023-03-06T00:00:59.869Z,34.6
2023-03-06T00:05:59.493Z,25.0
2023-03-06T00:10:59.487Z,29.3
2023-03-06T00:15:59.589Z,98.2
2023-03-06T00:20:59.459Z,28.2
2023-03-06T00:25:59.522Z,23.1
2023-03-06T00:30:59.466Z,21.3
2023-03-06T00:35:59.416Z,24.5
2023-03-06T00:40:59.530Z,21.4
2023-03-06T00:45:59.425Z,54.3
2023-03-06T00:50:59.372Z,51.8
2023-03-06T00:55:59.583Z,52.6
2023-03-06T01:00:59.427Z,26.5
2023-03-06T01:05:59.354Z,23.1
2023-03-06T01:10:59.440Z,24.7
2023-03-06T01:15:59.345Z,46.2
2023-03-06T01:20:59.313Z,22.1
2023-03-06T01:25:59.443Z,22.3
2023-03-06T01:30:59.356Z,24.8
2023-03-06T01:35:59.373Z,19.9
2023-03-06T01:40:59.588Z,20.8
2023-03-06T01:45:59.394Z,22.5
2023-03-06T01:50:59.224Z,18.7
2023-03-06T01:55:59.259Z,18.1
2023-03-06T02:00:59.305Z,17.4
2023-03-06T02:05:59.241Z,20.5
2023-03-06T02:11:00.529Z,16.6
2023-03-06T02:15:59.213Z,18.3
2023-03-06T02:20:59.225Z,19.7
2023-03-06T02:26:00.686Z,28.3
2023-03-06T02:30:59.219Z,29.0
2023-03-06T02:35:59.225Z,30.9
2023-03-06T02:40:59.179Z,29.1
2023-03-06T02:45:59.192Z,31.2
2023-03-06T02:50:59.252Z,48.6
2023-03-06T02:55:59.257Z,38.4
2023-03-06T03:00:59.164Z,34.7
2023-03-06T03:05:59.108Z,37.0
2023-03-06T03:10:59.229Z,33.3
2023-03-06T03:15:59.150Z,36.6
2023-03-06T03:20:59.092Z,35.5
2023-03-06T03:25:59.098Z,37.8
2023-03-06T03:30:59.163Z,40.7
2023-03-06T03:35:59.187Z,63.1
2023-03-06T03:40:59.107Z,41.1
2023-03-06T03:45:59.096Z,46.9
2023-03-06T03:50:59.205Z,40.4
2023-03-06T03:55:59.024Z,52.0
2023-03-06T04:00:59.049Z,53.5
2023-03-06T04:05:59.124Z,53.7
2023-03-06T04:10:58.998Z,64.9
2023-03-06T04:15:59.036Z,54.4
2023-03-06T04:20:59.132Z,58.6
2023-03-06T04:25:59.019Z,63.4
2023-03-06T04:30:58.948Z,63.1
2023-03-06T04:35:59.123Z,71.4
2023-03-06T04:40:58.997Z,68.7
2023-03-06T04:45:59.038Z,62.5
2023-03-06T04:50:59.051Z,62.9
2023-03-06T04:56:00.491Z,57.0
2023-03-06T05:00:59.059Z,57.6
2023-03-06T05:05:58.967Z,58.3
2023-03-06T05:10:58.959Z,53.0
2023-03-06T05:15:58.856Z,54.1
2023-03-06T05:20:59.111Z,50.4
2023-03-06T05:25:58.982Z,51.5
2023-03-06T05:30:58.874Z,45.2
2023-03-06T05:35:59.050Z,60.6
2023-03-06T05:40:58.831Z,52.0
2023-03-06T05:46:00.410Z,61.5
2023-03-06T05:50:58.932Z,73.9
2023-03-06T05:55:58.831Z,62.2
2023-03-06T06:00:58.839Z,54.7
2023-03-06T06:05:59.040Z,49.8
2023-03-06T06:11:00.428Z,47.4
2023-03-06T06:15:58.848Z,47.4
2023-03-06T06:20:58.726Z,46.4
2023-03-06T06:25:59.235Z,48.7
2023-03-06T06:30:58.925Z,63.1
2023-03-06T06:35:59.133Z,58.9
2023-03-06T06:41:32.981Z,59.0
2023-03-06T06:46:19.583Z,53.6
2023-03-06T06:50:58.714Z,62.2
2023-03-06T06:55:58.840Z,60.9
2023-03-06T07:00:58.842Z,60.4
2023-03-06T07:05:58.703Z,59.0
2023-03-06T07:11:09.159Z,60.0
2023-03-06T07:15:58.708Z,62.0
2023-03-06T07:21:01.288Z,53.3
2023-03-06T07:25:58.670Z,56.1
2023-03-06T07:30:58.693Z,60.5
2023-03-06T07:35:58.862Z,59.3
2023-03-06T07:40:58.622Z,48.6
2023-03-06T07:45:58.649Z,43.9
2023-03-06T07:50:58.762Z,41.5
2023-03-06T07:55:58.594Z,43.6
2023-03-06T08:00:58.578Z,46.5
2023-03-06T08:05:58.795Z,42.6
2023-03-06T08:10:58.687Z,40.6
2023-03-06T08:15:58.628Z,41.0
2023-03-06T08:20:58.753Z,36.5
2023-03-06T08:25:58.623Z,36.2
2023-03-06T08:30:58.630Z,32.5
2023-03-06T08:36:00.648Z,30.4
2023-03-06T08:40:58.521Z,26.1
2023-03-06T08:45:58.637Z,29.3
2023-03-06T08:50:58.728Z,38.0
2023-03-06T08:55:58.502Z,23.9
2023-03-06T09:00:58.555Z,24.0
2023-03-06T09:05:58.684Z,30.0
2023-03-06T09:10:58.577Z,24.1
2023-03-06T09:15:58.459Z,22.3
2023-03-06T09:20:58.616Z,20.2
2023-03-06T09:25:58.485Z,21.8
2023-03-06T09:30:58.501Z,19.1
2023-03-06T09:35:58.690Z,22.9
2023-03-06T09:40:58.506Z,19.5
2023-03-06T09:45:58.740Z,18.7
2023-03-06T09:50:59.506Z,18.7
2023-03-06T09:55:58.387Z,25.7
2023-03-06T10:00:58.386Z,19.4
2023-03-06T10:06:02.938Z,29.1
2023-03-06T10:10:58.346Z,41.2
2023-03-06T10:15:58.406Z,21.1
2023-03-06T10:21:04.732Z,71.2
2023-03-06T10:25:59.266Z,128.5
2023-03-06T10:30:59.161Z,145.7
2023-03-06T10:35:58.376Z,130.5
2023-03-06T10:40:58.406Z,47.4
2023-03-06T10:45:58.544Z,55.1
2023-03-06T10:50:59.671Z,33.7
2023-03-06T10:55:58.329Z,24.0
2023-03-06T11:00:58.495Z,23.8
2023-03-06T11:05:58.408Z,19.6
2023-03-06T11:10:58.346Z,17.9
2023-03-06T11:15:58.476Z,26.0
2023-03-06T11:20:58.300Z,21.4
2023-03-06T11:25:58.446Z,20.2
2023-03-06T11:30:58.570Z,19.3
2023-03-06T11:35:58.350Z,19.6
2023-03-06T11:40:58.322Z,16.6
2023-03-06T11:45:58.484Z,13.7
2023-03-06T11:50:58.277Z,18.3
2023-03-06T11:55:58.206Z,20.3
2023-03-06T12:00:58.326Z,17.4
2023-03-06T12:05:58.569Z,22.3
2023-03-06T12:10:58.138Z,14.4
2023-03-06T12:15:58.168Z,19.3
2023-03-06T12:20:58.140Z,13.2
2023-03-06T12:25:58.229Z,13.6
2023-03-06T12:30:58.263Z,12.9
2023-03-06T12:35:58.189Z,10.1
2023-03-06T12:40:58.079Z,12.0
2023-03-06T12:45:58.369Z,12.5
2023-03-06T12:50:58.101Z,13.4
2023-03-06T12:55:58.378Z,9.8
2023-03-06T13:01:03.576Z,44.9
2023-03-06T13:05:58.407Z,41.3
2023-03-06T13:10:58.053Z,17.7
2023-03-06T13:15:58.053Z,16.9
2023-03-06T13:20:58.062Z,18.4
2023-03-06T13:25:58.329Z,22.3
2023-03-06T13:30:58.210Z,14.6
2023-03-06T13:35:58.062Z,28.5
2023-03-06T13:40:58.270Z,33.2
2023-03-06T13:45:58.141Z,89.0
2023-03-06T13:50:57.980Z,85.7
2023-03-06T13:56:16.819Z,79.2
2023-03-06T14:00:58.055Z,29.0
2023-03-06T14:05:57.927Z,66.1
2023-03-06T14:10:57.935Z,98.1
2023-03-06T14:15:57.953Z,53.6
2023-03-06T14:20:58.051Z,66.9
2023-03-06T14:25:57.959Z,30.5
2023-03-06T14:30:58.048Z,30.3
2023-03-06T14:35:58.051Z,44.5
2023-03-06T14:40:57.930Z,33.8
2023-03-06T14:45:57.874Z,24.0
2023-03-06T14:50:57.976Z,24.0
2023-03-06T14:55:58.017Z,35.7
2023-03-06T15:00:57.908Z,25.6
2023-03-06T15:05:58.044Z,16.8
2023-03-06T15:10:57.872Z,21.0
2023-03-06T15:15:58.015Z,11.5
2023-03-06T15:20:58.114Z,14.4
2023-03-06T15:25:57.935Z,19.3
2023-03-06T15:30:57.874Z,23.1
2023-03-06T15:35:57.968Z,16.5
2023-03-06T15:40:57.914Z,22.3
2023-03-06T15:45:57.883Z,53.3
2023-03-06T15:50:58.274Z,23.4
2023-03-06T15:55:57.862Z,25.7
2023-03-06T16:00:57.736Z,29.0
2023-03-06T16:05:57.945Z,21.0
2023-03-06T16:10:57.744Z,18.8
2023-03-06T16:15:57.839Z,20.7
2023-03-06T16:20:57.861Z,23.5
2023-03-06T16:25:57.800Z,21.1
2023-03-06T16:30:57.932Z,21.8
2023-03-06T16:35:58.109Z,40.4
2023-03-06T16:40:57.728Z,26.3
2023-03-06T16:45:57.749Z,26.7
2023-03-06T16:50:57.811Z,29.8
2023-03-06T16:55:57.762Z,33.3
2023-03-06T17:00:57.712Z,35.3
2023-03-06T17:05:57.876Z,35.0
2023-03-06T17:10:58.416Z,35.7
2023-03-06T17:15:57.724Z,109.1
2023-03-06T17:20:59.376Z,47.7
2023-03-06T17:25:57.724Z,143.6
2023-03-06T17:30:57.706Z,72.7
2023-03-06T17:35:57.820Z,44.4
2023-03-06T17:40:57.535Z,38.4
2023-03-06T17:45:57.605Z,42.8
2023-03-06T17:50:57.706Z,38.3
2023-03-06T17:55:57.588Z,36.3
2023-03-06T18:00:57.592Z,39.7
2023-03-06T18:05:57.648Z,42.2
2023-03-06T18:15:57.645Z,37.4
2023-03-06T18:20:57.618Z,32.8
2023-03-06T18:25:57.434Z,33.7
2023-03-06T18:30:57.546Z,38.8
2023-03-06T18:35:57.663Z,37.4
2023-03-06T18:40:57.645Z,40.3
2023-03-06T18:45:57.750Z,39.0
2023-03-06T18:50:57.459Z,71.4
2023-03-06T18:55:57.528Z,50.4
2023-03-06T19:00:59.330Z,45.3
2023-03-06T19:05:57.538Z,66.9
2023-03-06T19:10:57.611Z,48.9
2023-03-06T19:15:57.935Z,49.3
2023-03-06T19:20:57.548Z,42.9
2023-03-06T19:25:57.585Z,83.1
2023-03-06T19:30:57.441Z,41.7
2023-03-06T19:35:57.712Z,47.3
2023-03-06T19:40:57.980Z,52.2
2023-03-06T19:45:57.513Z,52.6
2023-03-06T19:50:58.014Z,58.0
2023-03-06T19:55:57.986Z,57.4
2023-03-06T20:00:57.348Z,50.0
2023-03-06T20:05:59.085Z,53.4
2023-03-06T20:10:58.612Z,64.8
2023-03-06T20:15:57.721Z,63.3
2023-03-06T20:20:57.343Z,56.1
2023-03-06T20:25:57.339Z,55.4
2023-03-06T20:30:57.375Z,62.5
2023-03-06T20:35:57.268Z,63.8
2023-03-06T20:40:57.367Z,67.9
2023-03-06T20:45:57.245Z,60.8
2023-03-06T20:50:57.287Z,64.1
2023-03-06T20:55:57.457Z,72.8
2023-03-06T21:00:57.190Z,66.0
2023-03-06T21:05:57.177Z,69.4
2023-03-06T21:10:57.299Z,64.0
2023-03-06T21:15:57.216Z,70.9
2023-03-06T21:20:57.151Z,76.3
2023-03-06T21:25:57.311Z,82.0
2023-03-06T21:30:57.188Z,93.9
2023-03-06T21:35:58.079Z,87.0
2023-03-06T21:40:57.156Z,113.7
2023-03-06T21:45:57.164Z,81.0
2023-03-06T21:50:57.276Z,80.7
2023-03-06T21:55:57.144Z,89.3
2023-03-06T22:00:57.189Z,95.0
2023-03-06T22:05:57.076Z,87.7
2023-03-06T22:10:57.252Z,84.0
2023-03-06T22:15:57.064Z,86.7
2023-03-06T22:20:57.058Z,86.7
2023-03-06T22:25:57.094Z,86.8
2023-03-06T22:30:57.242Z,84.3
2023-03-06T22:35:58.155Z,76.8
2023-03-06T22:40:57.008Z,76.4
2023-03-06T22:45:57.795Z,91.0
2023-03-06T22:50:57.025Z,101.8
2023-03-06T22:55:57.106Z,74.1
2023-03-06T23:00:57.116Z,72.4
2023-03-06T23:05:56.994Z,79.1
2023-03-06T23:10:56.935Z,80.7
2023-03-06T23:15:57.112Z,74.6
2023-03-06T23:20:56.930Z,73.9
2023-03-06T23:25:56.899Z,72.6
2023-03-06T23:30:57.054Z,66.7
2023-03-06T23:35:57.010Z,68.9
2023-03-06T23:40:57.576Z,72.8
2023-03-06T23:45:56.915Z,107.2
2023-03-06T23:50:57.627Z,91.2
2023-03-06T23:55:57.599Z,106.6
